createdAt,value
2023-03-02T00:01:09.494Z,99.27
2023-03-02T00:03:39.895Z,96.93
2023-03-02T00:06:09.029Z,94.60
2023-03-02T00:08:36.301Z,100.33
2023-03-02T00:11:03.122Z,89.50
2023-03-02T00:13:30.309Z,93.47
2023-03-02T00:15:57.225Z,93.57
2023-03-02T00:18:24.260Z,103.43
2023-03-02T00:20:53.479Z,101.73
2023-03-02T00:23:22.708Z,96.33
2023-03-02T00:25:49.503Z,99.40
2023-03-02T00:28:18.854Z,102.03
2023-03-02T00:30:45.705Z,97.60
2023-03-02T00:33:12.501Z,98.70
2023-03-02T00:35:40.326Z,96.90
2023-03-02T00:38:07.439Z,108.07
2023-03-02T00:40:36.719Z,101.70
2023-03-02T00:43:03.786Z,107.33
2023-03-02T00:45:30.669Z,108.67
2023-03-02T00:47:59.909Z,102.57
2023-03-02T00:50:26.657Z,96.67
2023-03-02T00:52:53.412Z,92.10
2023-03-02T00:55:22.841Z,102.43
2023-03-02T00:57:56.014Z,94.97
2023-03-02T01:00:23.245Z,98.30
2023-03-02T01:02:53.178Z,88.67
2023-03-02T01:05:20.058Z,92.23
2023-03-02T01:07:46.991Z,98.40
2023-03-02T01:10:16.920Z,100.90
2023-03-02T01:12:48.470Z,99.20
2023-03-02T01:15:19.898Z,98.90
2023-03-02T01:17:46.825Z,104.13
2023-03-02T01:20:13.902Z,93.20
2023-03-02T01:22:40.750Z,99.97
2023-03-02T01:25:07.894Z,102.27
2023-03-02T01:27:34.645Z,97.83
2023-03-02T01:30:03.810Z,97.97
2023-03-02T01:32:35.206Z,101.57
2023-03-02T01:35:01.979Z,91.23
2023-03-02T01:37:28.753Z,92.30
2023-03-02T01:39:55.550Z,99.60
2023-03-02T01:42:24.804Z,93.07
2023-03-02T01:44:57.100Z,91.57
2023-03-02T01:47:26.718Z,91.27
2023-03-02T01:49:57.564Z,95.80
2023-03-02T01:52:24.430Z,90.47
2023-03-02T01:54:51.882Z,93.33
2023-03-02T01:57:23.276Z,82.67
2023-03-02T01:59:51.022Z,78.00
2023-03-02T02:02:22.327Z,75.07
2023-03-02T02:04:49.130Z,72.53
2023-03-02T02:07:15.978Z,75.17
2023-03-02T02:09:47.385Z,77.17
2023-03-02T02:12:18.193Z,70.27
2023-03-02T02:14:45.061Z,72.33
2023-03-02T02:17:12.433Z,65.70
2023-03-02T02:19:50.728Z,70.20
2023-03-02T02:22:22.506Z,69.07
2023-03-02T02:24:57.373Z,63.33
2023-03-02T02:27:29.822Z,66.40
2023-03-02T02:29:58.276Z,61.67
2023-03-02T02:32:28.284Z,65.90
2023-03-02T02:35:11.320Z,62.43
2023-03-02T02:37:42.821Z,68.37
2023-03-02T02:40:21.218Z,64.10
2023-03-02T02:42:48.856Z,61.10
2023-03-02T02:45:24.592Z,59.90
2023-03-02T02:47:51.521Z,53.83
2023-03-02T02:50:20.813Z,60.87
2023-03-02T02:52:49.380Z,61.50
2023-03-02T02:55:16.627Z,52.47
2023-03-02T02:57:43.388Z,57.23
2023-03-02T03:00:12.223Z,58.47
2023-03-02T03:02:43.646Z,56.10
2023-03-02T03:05:14.542Z,58.20
2023-03-02T03:07:43.507Z,55.23
2023-03-02T03:10:19.466Z,62.80
2023-03-02T03:12:46.611Z,55.50
2023-03-02T03:15:13.360Z,64.40
2023-03-02T03:17:40.944Z,63.40
2023-03-02T03:20:09.294Z,64.40
2023-03-02T03:22:38.820Z,62.00
2023-03-02T03:25:08.115Z,59.70
2023-03-02T03:27:34.959Z,65.20
2023-03-02T03:30:02.087Z,67.00
2023-03-02T03:32:29.107Z,64.33
2023-03-02T03:34:58.087Z,64.60
2023-03-02T03:37:25.208Z,62.50
2023-03-02T03:39:52.017Z,64.13
2023-03-02T03:42:18.877Z,59.97
2023-03-02T03:44:48.302Z,64.37
2023-03-02T03:47:15.061Z,64.63
2023-03-02T03:49:41.844Z,64.97
2023-03-02T03:52:08.636Z,62.93
2023-03-02T03:54:35.435Z,61.33
2023-03-02T03:57:02.221Z,62.00
2023-03-02T03:59:31.217Z,65.97
2023-03-02T04:01:59.374Z,61.80
2023-03-02T04:04:31.191Z,66.47
2023-03-02T04:06:57.948Z,62.67
2023-03-02T04:09:28.244Z,59.13
2023-03-02T04:11:58.874Z,60.13
2023-03-02T04:14:25.773Z,56.23
2023-03-02T04:16:57.189Z,62.20
2023-03-02T04:19:24.222Z,54.30
2023-03-02T04:21:52.650Z,57.33
2023-03-02T04:24:20.220Z,62.37
2023-03-02T04:26:49.128Z,58.23
2023-03-02T04:29:16.224Z,57.00
2023-03-02T04:31:43.160Z,55.50
2023-03-02T04:34:10.093Z,53.53
2023-03-02T04:36:41.445Z,55.40
2023-03-02T04:39:08.309Z,56.10
2023-03-02T04:41:37.574Z,53.10
2023-03-02T04:44:04.559Z,51.77
2023-03-02T04:46:34.703Z,53.20
2023-03-02T04:49:04.404Z,57.77
2023-03-02T04:51:33.193Z,59.60
2023-03-02T04:54:02.119Z,59.47
2023-03-02T04:56:31.644Z,59.77
2023-03-02T04:59:01.848Z,63.97
2023-03-02T05:01:30.872Z,62.10
2023-03-02T05:03:57.671Z,59.93
2023-03-02T05:06:25.267Z,67.43
2023-03-02T05:08:52.933Z,65.17
2023-03-02T05:11:24.897Z,65.93
2023-03-02T05:13:53.247Z,67.93
2023-03-02T05:16:22.281Z,72.63
2023-03-02T05:18:51.697Z,76.80
2023-03-02T05:21:18.701Z,75.63
2023-03-02T05:23:50.243Z,71.63
2023-03-02T05:26:20.041Z,66.03
2023-03-02T05:28:46.879Z,68.43
2023-03-02T05:31:19.441Z,67.47
2023-03-02T05:33:48.772Z,71.20
2023-03-02T05:36:18.929Z,65.37
2023-03-02T05:38:46.301Z,65.73
2023-03-02T05:41:16.546Z,67.63
2023-03-02T05:43:45.577Z,69.07
2023-03-02T05:46:12.392Z,60.17
2023-03-02T05:48:42.567Z,68.07
2023-03-02T05:51:09.378Z,69.13
2023-03-02T05:53:38.319Z,69.37
2023-03-02T05:56:08.428Z,63.73
2023-03-02T05:58:37.744Z,64.07
2023-03-02T06:01:08.405Z,60.60
2023-03-02T06:03:37.324Z,59.93
2023-03-02T06:06:06.614Z,60.90
2023-03-02T06:08:41.008Z,61.73
2023-03-02T06:11:08.319Z,53.87
2023-03-02T06:13:35.188Z,62.17
2023-03-02T06:16:04.120Z,59.40
2023-03-02T06:18:33.192Z,56.70
2023-03-02T06:21:02.627Z,60.33
2023-03-02T06:23:31.622Z,59.77
2023-03-02T06:25:59.058Z,62.80
2023-03-02T06:28:26.072Z,60.67
2023-03-02T06:30:52.856Z,62.87
2023-03-02T06:33:21.230Z,61.07
2023-03-02T06:35:48.417Z,66.67
2023-03-02T06:38:17.441Z,59.63
2023-03-02T06:40:44.296Z,59.83
2023-03-02T06:43:11.282Z,59.77
2023-03-02T06:45:38.317Z,64.37
2023-03-02T06:48:05.455Z,65.77
2023-03-02T06:50:32.450Z,62.73
2023-03-02T06:52:59.315Z,58.93
2023-03-02T06:55:30.794Z,61.40
2023-03-02T06:57:57.658Z,60.37
2023-03-02T07:00:28.092Z,65.37
2023-03-02T07:02:58.053Z,60.37
2023-03-02T07:05:27.258Z,56.57
2023-03-02T07:07:54.035Z,57.63
2023-03-02T07:10:23.059Z,62.47
2023-03-02T07:12:52.786Z,59.83
2023-03-02T07:15:22.358Z,57.70
2023-03-02T07:17:49.132Z,65.70
2023-03-02T07:20:19.820Z,62.37
2023-03-02T07:22:49.630Z,61.00
2023-03-02T07:25:16.543Z,60.20
2023-03-02T07:27:43.328Z,62.27
2023-03-02T07:30:10.828Z,59.07
2023-03-02T07:32:37.851Z,57.53
2023-03-02T07:35:05.182Z,61.53
2023-03-02T07:37:31.949Z,70.30
2023-03-02T07:40:01.201Z,65.57
2023-03-02T07:42:30.492Z,65.33
2023-03-02T07:44:57.276Z,65.17
2023-03-02T07:47:24.080Z,62.70
2023-03-02T07:49:53.047Z,69.90
2023-03-02T07:52:19.822Z,64.80
2023-03-02T07:54:46.572Z,60.30
2023-03-02T07:57:16.257Z,63.93
2023-03-02T07:59:43.532Z,61.20
2023-03-02T08:02:12.866Z,63.33
2023-03-02T08:04:44.422Z,62.63
2023-03-02T08:07:11.218Z,59.27
2023-03-02T08:09:43.222Z,61.03
2023-03-02T08:12:10.103Z,65.40
2023-03-02T08:14:37.453Z,58.90
2023-03-02T08:17:05.503Z,58.93
2023-03-02T08:19:34.866Z,58.03
2023-03-02T08:22:02.292Z,57.20
2023-03-02T08:24:29.098Z,64.67
2023-03-02T08:26:56.041Z,53.00
2023-03-02T08:29:24.533Z,47.97
2023-03-02T08:31:53.613Z,40.93
2023-03-02T08:34:20.475Z,40.57
2023-03-02T08:36:47.311Z,38.93
2023-03-02T08:39:14.177Z,35.73
2023-03-02T08:41:45.698Z,34.83
2023-03-02T08:44:14.693Z,28.57
2023-03-02T08:46:44.028Z,31.83
2023-03-02T08:49:10.851Z,48.93
2023-03-02T08:51:37.633Z,52.57
2023-03-02T08:54:04.560Z,56.57
2023-03-02T08:56:33.864Z,56.43
2023-03-02T08:59:05.547Z,55.83
2023-03-02T09:01:34.060Z,58.97
2023-03-02T09:04:01.383Z,56.73
2023-03-02T09:06:28.887Z,57.97
2023-03-02T09:08:55.826Z,54.60
2023-03-02T09:11:22.581Z,55.37
2023-03-02T09:13:49.369Z,51.17
2023-03-02T09:16:20.273Z,54.50
2023-03-02T09:18:53.177Z,55.10
2023-03-02T09:21:22.578Z,63.70
2023-03-02T09:23:53.738Z,55.80
2023-03-02T09:26:20.694Z,56.47
2023-03-02T09:28:52.973Z,52.87
2023-03-02T09:31:20.018Z,49.10
2023-03-02T09:33:46.840Z,46.23
2023-03-02T09:36:18.868Z,40.63
2023-03-02T09:38:45.752Z,27.73
2023-03-02T09:41:21.920Z,28.97
2023-03-02T09:43:51.046Z,23.70
2023-03-02T09:46:26.989Z,25.50
2023-03-02T09:49:06.330Z,23.53
2023-03-02T09:51:39.927Z,23.23
2023-03-02T09:54:14.083Z,23.07
2023-03-02T09:56:46.433Z,24.70
2023-03-02T09:59:24.491Z,26.33
2023-03-02T10:02:18.470Z,25.57
2023-03-02T10:04:47.370Z,25.73
2023-03-02T10:07:16.586Z,29.43
2023-03-02T10:09:45.578Z,25.83
2023-03-02T10:12:21.658Z,27.47
2023-03-02T10:15:18.480Z,30.80
2023-03-02T10:18:00.438Z,25.63
2023-03-02T10:20:52.983Z,26.67
2023-03-02T10:23:19.764Z,24.53
2023-03-02T10:25:58.374Z,24.60
2023-03-02T10:28:31.911Z,21.37
2023-03-02T10:31:12.439Z,22.67
2023-03-02T10:33:39.693Z,21.17
2023-03-02T10:36:11.612Z,19.00
2023-03-02T10:38:43.171Z,18.57
2023-03-02T10:41:10.739Z,20.77
2023-03-02T10:43:42.826Z,17.97
2023-03-02T10:46:10.566Z,20.10
2023-03-02T10:48:50.491Z,14.67
2023-03-02T10:51:23.456Z,14.73
2023-03-02T10:53:50.298Z,15.43
2023-03-02T10:56:21.035Z,11.67
2023-03-02T10:58:47.881Z,8.93
2023-03-02T11:01:18.570Z,10.93
2023-03-02T11:04:03.332Z,9.13
2023-03-02T11:06:33.689Z,9.67
2023-03-02T11:09:06.473Z,8.77
2023-03-02T11:11:38.052Z,10.37
2023-03-02T11:14:09.569Z,10.83
2023-03-02T11:16:36.431Z,10.60
2023-03-02T11:19:35.868Z,9.27
2023-03-02T11:22:26.609Z,9.10
2023-03-02T11:24:55.164Z,10.47
2023-03-02T11:27:25.332Z,10.30
2023-03-02T11:30:18.542Z,17.63
2023-03-02T11:32:51.942Z,13.33
2023-03-02T11:35:27.809Z,12.00
2023-03-02T11:37:58.207Z,10.50
2023-03-02T11:40:47.246Z,10.33
2023-03-02T11:43:14.243Z,15.93
2023-03-02T11:45:48.686Z,14.07
2023-03-02T11:48:25.468Z,14.07
2023-03-02T11:50:55.008Z,12.83
2023-03-02T11:53:21.824Z,13.90
2023-03-02T11:55:51.150Z,14.63
2023-03-02T11:58:25.420Z,13.37
2023-03-02T12:00:54.509Z,13.00
2023-03-02T12:03:28.429Z,13.57
2023-03-02T12:06:01.101Z,13.93
2023-03-02T12:08:35.503Z,15.80
2023-03-02T12:11:17.629Z,15.60
2023-03-02T12:14:25.262Z,17.83
2023-03-02T12:16:52.263Z,16.37
2023-03-02T12:19:29.305Z,19.13
2023-03-02T12:22:02.192Z,18.93
2023-03-02T12:24:32.853Z,18.87
2023-03-02T12:27:25.810Z,17.37
2023-03-02T12:30:10.532Z,15.33
2023-03-02T12:32:37.548Z,15.60
2023-03-02T12:35:13.386Z,16.83
2023-03-02T12:38:21.744Z,16.83
2023-03-02T12:41:32.735Z,17.87
2023-03-02T12:44:14.373Z,18.00
2023-03-02T12:46:45.045Z,21.47
2023-03-02T12:49:35.595Z,21.73
2023-03-02T12:52:04.041Z,20.90
2023-03-02T12:54:32.518Z,18.47
2023-03-02T12:57:09.002Z,18.67
2023-03-02T12:59:38.376Z,19.60
2023-03-02T13:02:22.064Z,18.60
2023-03-02T13:05:03.515Z,21.93
2023-03-02T13:07:36.570Z,21.70
2023-03-02T13:10:09.079Z,19.50
2023-03-02T13:12:37.558Z,20.50
2023-03-02T13:15:12.039Z,21.73
2023-03-02T13:17:41.030Z,25.30
2023-03-02T13:20:08.414Z,22.60
2023-03-02T13:22:35.210Z,19.47
2023-03-02T13:25:03.844Z,22.37
2023-03-02T13:27:31.054Z,23.57
2023-03-02T13:30:11.644Z,20.30
2023-03-02T13:32:44.151Z,21.87
2023-03-02T13:35:24.420Z,17.10
2023-03-02T13:37:58.426Z,23.97
2023-03-02T13:40:31.281Z,22.67
2023-03-02T13:42:58.208Z,22.03
2023-03-02T13:45:26.202Z,20.53
2023-03-02T13:47:53.712Z,20.47
2023-03-02T13:50:28.332Z,21.57
2023-03-02T13:53:01.605Z,21.37
2023-03-02T13:55:33.006Z,19.53
2023-03-02T13:58:01.902Z,25.00
2023-03-02T14:00:35.325Z,20.97
2023-03-02T14:03:04.692Z,23.63
2023-03-02T14:05:33.549Z,21.87
2023-03-02T14:08:00.834Z,22.87
2023-03-02T14:10:32.216Z,26.17
2023-03-02T14:13:06.171Z,24.20
2023-03-02T14:15:42.686Z,30.97
2023-03-02T14:18:35.444Z,18.70
2023-03-02T14:21:02.281Z,22.90
2023-03-02T14:23:29.197Z,22.40
2023-03-02T14:26:00.638Z,22.67
2023-03-02T14:28:35.684Z,24.60
2023-03-02T14:31:02.511Z,26.33
2023-03-02T14:33:29.362Z,26.27
2023-03-02T14:35:57.124Z,26.63
2023-03-02T14:38:24.556Z,23.87
2023-03-02T14:40:51.421Z,26.87
2023-03-02T14:43:18.715Z,23.33
2023-03-02T14:45:45.778Z,22.80
2023-03-02T14:48:12.649Z,23.27
2023-03-02T14:50:45.571Z,24.73
2023-03-02T14:53:17.643Z,28.47
2023-03-02T14:55:44.448Z,23.53
2023-03-02T14:58:17.003Z,25.73
2023-03-02T15:00:44.037Z,22.17
2023-03-02T15:03:15.788Z,22.57
2023-03-02T15:05:51.727Z,22.87
2023-03-02T15:08:25.943Z,22.33
2023-03-02T15:10:55.383Z,22.77
2023-03-02T15:13:22.223Z,27.03
2023-03-02T15:15:52.797Z,24.90
2023-03-02T15:18:22.272Z,23.90
2023-03-02T15:20:49.096Z,23.90
2023-03-02T15:23:15.842Z,28.37
2023-03-02T15:25:43.129Z,23.97
2023-03-02T15:28:12.227Z,24.33
2023-03-02T15:30:39.132Z,24.43
2023-03-02T15:33:08.483Z,25.77
2023-03-02T15:35:37.960Z,26.80
2023-03-02T15:38:04.919Z,23.07
2023-03-02T15:40:34.262Z,24.50
2023-03-02T15:43:03.532Z,23.73
2023-03-02T15:45:30.359Z,29.73
2023-03-02T15:47:57.571Z,23.97
2023-03-02T15:50:26.561Z,25.13
2023-03-02T15:52:53.383Z,22.83
2023-03-02T15:55:22.616Z,23.63
2023-03-02T15:57:49.466Z,24.87
2023-03-02T16:00:21.579Z,25.50
2023-03-02T16:02:49.738Z,23.97
2023-03-02T16:05:19.171Z,21.77
2023-03-02T16:07:45.974Z,22.17
2023-03-02T16:10:16.541Z,25.53
2023-03-02T16:12:45.879Z,27.10
2023-03-02T16:15:14.776Z,27.43
2023-03-02T16:17:44.141Z,26.93
2023-03-02T16:20:11.624Z,24.67
2023-03-02T16:22:40.551Z,24.53
2023-03-02T16:25:09.938Z,28.10
2023-03-02T16:27:41.175Z,27.07
2023-03-02T16:30:08.724Z,25.90
2023-03-02T16:32:35.610Z,25.53
2023-03-02T16:35:02.467Z,27.13
2023-03-02T16:37:32.060Z,23.83
2023-03-02T16:39:58.923Z,27.03
2023-03-02T16:42:30.546Z,27.10
2023-03-02T16:44:57.296Z,28.47
2023-03-02T16:47:24.091Z,26.13
2023-03-02T16:49:50.936Z,28.13
2023-03-02T16:52:18.494Z,28.40
2023-03-02T16:54:45.369Z,28.17
2023-03-02T16:57:14.350Z,27.43
2023-03-02T16:59:41.193Z,27.97
2023-03-02T17:02:10.199Z,27.70
2023-03-02T17:04:37.374Z,32.00
2023-03-02T17:07:08.926Z,27.97
2023-03-02T17:09:36.244Z,29.90
2023-03-02T17:12:03.581Z,33.67
2023-03-02T17:14:30.405Z,30.97
2023-03-02T17:16:57.181Z,36.10
2023-03-02T17:19:24.552Z,30.97
2023-03-02T17:21:53.426Z,34.87
2023-03-02T17:24:20.185Z,35.63
2023-03-02T17:26:47.472Z,34.50
2023-03-02T17:29:14.240Z,35.70
2023-03-02T17:31:41.167Z,36.87
2023-03-02T17:34:07.934Z,37.47
2023-03-02T17:36:37.072Z,37.47
2023-03-02T17:39:04.249Z,40.00
2023-03-02T17:41:34.583Z,39.03
2023-03-02T17:44:02.060Z,38.00
2023-03-02T17:46:29.060Z,44.53
2023-03-02T17:48:59.504Z,43.53
2023-03-02T17:51:28.987Z,42.93
2023-03-02T17:53:55.933Z,43.40
2023-03-02T17:56:26.005Z,45.63
2023-03-02T17:58:56.311Z,43.27
2023-03-02T18:01:23.316Z,52.00
2023-03-02T18:03:50.284Z,45.13
2023-03-02T18:06:20.779Z,50.77
2023-03-02T18:08:48.803Z,54.67
2023-03-02T18:11:19.797Z,55.20
2023-03-02T18:13:48.936Z,56.37
2023-03-02T18:16:15.818Z,53.13
2023-03-02T18:18:44.969Z,57.87
2023-03-02T18:21:13.987Z,53.27
2023-03-02T18:23:42.057Z,52.00
2023-03-02T18:26:08.906Z,59.27
2023-03-02T18:28:35.681Z,60.00
2023-03-02T18:31:04.613Z,58.73
2023-03-02T18:33:31.628Z,80.50
2023-03-02T18:35:59.177Z,69.80
2023-03-02T18:38:30.922Z,62.10
2023-03-02T18:41:06.338Z,68.77
2023-03-02T18:43:36.855Z,76.40
2023-03-02T18:46:04.338Z,67.77
2023-03-02T18:48:31.901Z,75.30
2023-03-02T18:51:03.810Z,73.10
2023-03-02T18:53:33.013Z,77.47
2023-03-02T18:56:02.300Z,77.87
2023-03-02T18:58:34.111Z,75.43
2023-03-02T19:01:01.220Z,74.10
2023-03-02T19:03:28.095Z,73.30
2023-03-02T19:05:58.251Z,76.03
2023-03-02T19:08:25.210Z,71.53
2023-03-02T19:10:54.635Z,78.40
2023-03-02T19:13:23.936Z,76.93
2023-03-02T19:15:51.577Z,75.07
2023-03-02T19:18:21.982Z,73.90
2023-03-02T19:20:51.820Z,70.83
2023-03-02T19:23:18.681Z,77.00
2023-03-02T19:25:47.707Z,73.47
2023-03-02T19:28:14.610Z,69.90
2023-03-02T19:30:45.987Z,72.70
2023-03-02T19:33:12.871Z,74.30
2023-03-02T19:35:39.708Z,68.43
2023-03-02T19:38:06.715Z,78.23
2023-03-02T19:40:34.514Z,74.07
2023-03-02T19:43:02.660Z,68.93
2023-03-02T19:45:32.391Z,72.07
2023-03-02T19:48:05.791Z,74.50
2023-03-02T19:50:32.917Z,69.67
2023-03-02T19:53:02.180Z,64.53
2023-03-02T19:55:31.946Z,74.77
2023-03-02T19:58:02.549Z,71.10
2023-03-02T20:00:35.402Z,74.23
2023-03-02T20:03:02.392Z,83.90
2023-03-02T20:05:31.463Z,86.23
2023-03-02T20:07:58.255Z,83.60
2023-03-02T20:10:30.258Z,95.20
2023-03-02T20:12:59.603Z,90.83
2023-03-02T20:15:30.446Z,94.90
2023-03-02T20:18:02.354Z,103.80
2023-03-02T20:20:36.769Z,100.37
2023-03-02T20:23:04.651Z,101.00
2023-03-02T20:25:34.256Z,105.57
2023-03-02T20:28:05.478Z,126.00
2023-03-02T20:30:47.663Z,113.27
2023-03-02T20:33:17.152Z,107.20
2023-03-02T20:35:47.043Z,106.47
2023-03-02T20:38:17.510Z,103.37
2023-03-02T20:40:46.635Z,109.57
2023-03-02T20:43:13.399Z,112.47
2023-03-02T20:45:40.522Z,114.37
2023-03-02T20:48:09.832Z,115.87
2023-03-02T20:50:36.800Z,111.07
2023-03-02T20:53:03.987Z,111.77
2023-03-02T20:55:33.356Z,118.33
2023-03-02T20:58:01.200Z,116.57
2023-03-02T21:00:29.118Z,118.77
2023-03-02T21:02:57.182Z,116.97
2023-03-02T21:05:24.560Z,113.57
2023-03-02T21:07:51.617Z,119.43
2023-03-02T21:10:24.343Z,124.07
2023-03-02T21:12:51.313Z,119.97
2023-03-02T21:15:20.154Z,116.37
2023-03-02T21:17:47.171Z,120.70
2023-03-02T21:20:18.434Z,129.87
2023-03-02T21:22:45.759Z,130.20
2023-03-02T21:25:12.637Z,147.50
2023-03-02T21:27:40.215Z,141.67
2023-03-02T21:30:12.941Z,152.53
2023-03-02T21:32:41.283Z,155.80
2023-03-02T21:35:10.527Z,155.20
2023-03-02T21:37:37.390Z,152.80
2023-03-02T21:40:05.133Z,155.40
2023-03-02T21:42:34.132Z,164.47
2023-03-02T21:45:03.419Z,164.83
2023-03-02T21:47:30.198Z,172.90
2023-03-02T21:49:59.460Z,166.73
2023-03-02T21:52:28.689Z,165.73
2023-03-02T21:54:55.534Z,157.83
2023-03-02T21:57:24.582Z,159.00
2023-03-02T21:59:54.719Z,180.03
2023-03-02T22:02:23.678Z,177.77
2023-03-02T22:04:50.459Z,181.13
2023-03-02T22:07:17.261Z,182.03
2023-03-02T22:09:44.061Z,190.43
2023-03-02T22:12:16.216Z,178.43
2023-03-02T22:14:45.473Z,171.50
2023-03-02T22:17:19.042Z,173.67
2023-03-02T22:19:45.988Z,177.37
2023-03-02T22:22:31.121Z,173.03
2023-03-02T22:25:00.105Z,183.00
2023-03-02T22:27:34.730Z,169.37
2023-03-02T22:30:01.686Z,177.27
2023-03-02T22:32:29.437Z,177.00
2023-03-02T22:34:57.669Z,173.67
2023-03-02T22:37:33.218Z,195.27
2023-03-02T22:40:25.856Z,180.63
2023-03-02T22:42:56.693Z,169.57
2023-03-02T22:45:23.561Z,178.00
2023-03-02T22:47:52.589Z,171.10
2023-03-02T22:50:19.391Z,169.83
2023-03-02T22:52:46.142Z,168.50
2023-03-02T22:55:33.441Z,162.07
2023-03-02T22:58:07.296Z,158.50
2023-03-02T23:00:35.740Z,159.20
2023-03-02T23:03:02.598Z,170.43
2023-03-02T23:05:33.898Z,162.10
2023-03-02T23:08:15.405Z,160.57
2023-03-02T23:10:42.528Z,160.07
2023-03-02T23:13:14.315Z,159.77
2023-03-02T23:15:41.627Z,161.90
2023-03-02T23:18:22.143Z,160.03
2023-03-02T23:20:54.096Z,148.10
2023-03-02T23:23:21.883Z,153.83
2023-03-02T23:25:48.766Z,145.37
2023-03-02T23:28:15.541Z,154.30
2023-03-02T23:30:42.350Z,149.67
2023-03-02T23:33:11.603Z,141.23
2023-03-02T23:35:38.547Z,141.10
2023-03-02T23:38:07.757Z,142.47
2023-03-02T23:40:35.272Z,143.23
2023-03-02T23:43:02.336Z,147.33
2023-03-02T23:45:29.149Z,145.43
2023-03-02T23:47:57.661Z,140.63
2023-03-02T23:50:24.621Z,133.77
2023-03-02T23:52:51.390Z,136.60
2023-03-02T23:55:18.588Z,131.50
2023-03-02T23:57:45.369Z,127.03
